createdAt,value
2018-11-07T00:00:51.158Z,19.75
2018-11-07T00:03:21.824Z,20.20
2018-11-07T00:05:52.424Z,19.07
2018-11-07T00:08:23.126Z,19.55
2018-11-07T00:10:56.405Z,20.57
2018-11-07T00:13:26.996Z,20.30
2018-11-07T00:15:57.488Z,19.85
2018-11-07T00:18:28.144Z,19.52
2018-11-07T00:20:58.681Z,19.52
2018-11-07T00:23:29.316Z,20.00
2018-11-07T00:25:59.802Z,20.85
2018-11-07T00:28:30.321Z,20.40
2018-11-07T00:31:00.871Z,19.85
2018-11-07T00:33:31.435Z,19.80
2018-11-07T00:36:01.983Z,19.50
2018-11-07T00:38:32.558Z,20.20
2018-11-07T00:41:03.094Z,19.50
2018-11-07T00:43:33.821Z,19.67
2018-11-07T00:46:04.347Z,19.90
2018-11-07T00:48:34.892Z,19.12
2018-11-07T00:51:05.295Z,19.87
2018-11-07T00:53:35.921Z,19.60
2018-11-07T00:56:06.494Z,19.55
2018-11-07T00:58:37.045Z,19.60
2018-11-07T01:01:07.560Z,20.12
2018-11-07T01:03:38.137Z,19.07
2018-11-07T01:06:08.736Z,19.12
2018-11-07T01:08:39.968Z,20.23
2018-11-07T01:11:10.555Z,20.80
2018-11-07T01:13:41.075Z,19.25
2018-11-07T01:16:11.631Z,19.85
2018-11-07T01:18:42.252Z,18.92
2018-11-07T01:21:12.781Z,19.12
2018-11-07T01:23:43.299Z,19.55
2018-11-07T01:26:14.007Z,19.10
2018-11-07T01:28:44.566Z,18.73
2018-11-07T01:31:15.068Z,18.70
2018-11-07T01:33:45.558Z,18.45
2018-11-07T01:36:16.220Z,18.98
2018-11-07T01:38:46.720Z,18.57
2018-11-07T01:41:17.289Z,18.77
2018-11-07T01:43:47.953Z,18.52
2018-11-07T01:46:19.284Z,18.32
2018-11-07T01:48:49.821Z,17.67
2018-11-07T01:51:20.359Z,17.35
2018-11-07T01:53:50.885Z,17.67
2018-11-07T01:56:21.563Z,18.30
2018-11-07T01:58:52.032Z,17.90
2018-11-07T02:01:22.765Z,17.37
2018-11-07T02:03:53.243Z,17.32
2018-11-07T02:06:23.869Z,17.23
2018-11-07T02:08:54.433Z,16.97
2018-11-07T02:11:25.018Z,16.65
2018-11-07T02:13:55.557Z,17.23
2018-11-07T02:16:26.186Z,18.02
2018-11-07T02:18:56.789Z,18.35
2018-11-07T02:21:27.438Z,17.40
2018-11-07T02:23:57.978Z,17.50
2018-11-07T02:26:28.592Z,17.45
2018-11-07T02:28:59.019Z,17.25
2018-11-07T02:31:29.563Z,17.52
2018-11-07T02:34:00.127Z,17.70
2018-11-07T02:36:30.655Z,16.97
2018-11-07T02:39:01.254Z,17.42
2018-11-07T02:41:31.874Z,16.48
2018-11-07T02:44:02.384Z,17.30
2018-11-07T02:46:33.160Z,16.30
2018-11-07T02:49:03.906Z,16.70
2018-11-07T02:51:34.428Z,16.70
2018-11-07T02:54:04.940Z,16.42
2018-11-07T02:56:35.491Z,17.17
2018-11-07T02:59:06.068Z,16.60
2018-11-07T03:01:45.420Z,16.82
2018-11-07T03:04:17.056Z,17.25
2018-11-07T03:06:47.576Z,16.87
2018-11-07T03:09:18.091Z,16.82
2018-11-07T03:11:48.741Z,16.62
2018-11-07T03:14:19.289Z,16.57
2018-11-07T03:16:49.964Z,15.72
2018-11-07T03:19:20.538Z,15.63
2018-11-07T03:21:51.113Z,16.65
2018-11-07T03:24:21.619Z,16.25
2018-11-07T03:26:52.293Z,15.75
2018-11-07T03:29:22.958Z,16.55
2018-11-07T03:31:53.645Z,15.95
2018-11-07T03:34:24.261Z,15.75
2018-11-07T03:36:54.863Z,16.20
2018-11-07T03:39:25.489Z,16.40
2018-11-07T03:41:55.942Z,15.72
2018-11-07T03:44:26.546Z,15.90
2018-11-07T03:46:57.101Z,17.07
2018-11-07T03:49:27.733Z,15.93
2018-11-07T03:51:58.253Z,16.65
2018-11-07T03:54:28.826Z,17.00
2018-11-07T03:56:59.388Z,15.18
2018-11-07T03:59:29.925Z,16.10
2018-11-07T04:02:00.477Z,16.48
2018-11-07T04:04:31.002Z,15.75
2018-11-07T04:07:01.608Z,15.78
2018-11-07T04:09:32.180Z,15.88
2018-11-07T04:12:02.708Z,16.67
2018-11-07T04:14:33.272Z,16.48
2018-11-07T04:17:03.792Z,16.50
2018-11-07T04:19:34.302Z,14.90
2018-11-07T04:22:04.814Z,16.05
2018-11-07T04:24:35.395Z,15.32
2018-11-07T04:27:05.884Z,16.25
2018-11-07T04:29:36.362Z,15.80
2018-11-07T04:32:06.867Z,16.75
2018-11-07T04:34:37.466Z,16.15
2018-11-07T04:37:08.003Z,16.00
2018-11-07T04:39:38.571Z,15.80
2018-11-07T04:42:09.124Z,16.25
2018-11-07T04:44:39.716Z,16.97
2018-11-07T04:47:10.346Z,16.32
2018-11-07T04:49:40.955Z,16.30
2018-11-07T04:52:11.476Z,16.42
2018-11-07T04:54:42.002Z,15.60
2018-11-07T04:57:12.555Z,16.42
2018-11-07T04:59:43.166Z,16.23
2018-11-07T05:02:13.712Z,16.35
2018-11-07T05:04:44.394Z,16.35
2018-11-07T05:07:14.953Z,17.45
2018-11-07T05:09:45.557Z,18.02
2018-11-07T05:12:16.294Z,17.82
2018-11-07T05:14:46.753Z,17.05
2018-11-07T05:17:17.317Z,17.60
2018-11-07T05:19:48.078Z,18.57
2018-11-07T05:22:18.649Z,19.05
2018-11-07T05:24:49.218Z,18.07
2018-11-07T05:27:19.982Z,17.48
2018-11-07T05:29:50.526Z,17.07
2018-11-07T05:32:21.194Z,18.57
2018-11-07T05:34:51.732Z,16.95
2018-11-07T05:37:22.329Z,17.10
2018-11-07T05:39:52.843Z,17.60
2018-11-07T05:42:23.332Z,19.02
2018-11-07T05:44:53.780Z,19.42
2018-11-07T05:47:24.307Z,18.12
2018-11-07T05:49:54.921Z,18.80
2018-11-07T05:52:25.955Z,18.05
2018-11-07T05:54:56.689Z,19.00
2018-11-07T05:57:27.497Z,17.87
2018-11-07T05:59:57.961Z,18.80
2018-11-07T06:02:29.499Z,18.57
2018-11-07T06:05:00.055Z,23.95
2018-11-07T06:07:30.827Z,25.10
2018-11-07T06:10:01.393Z,26.35
2018-11-07T06:12:31.933Z,28.02
2018-11-07T06:15:03.812Z,26.17
2018-11-07T06:17:34.546Z,27.05
2018-11-07T06:20:05.049Z,26.12
2018-11-07T06:22:42.986Z,23.92
2018-11-07T06:25:56.195Z,21.82
2018-11-07T06:28:33.896Z,22.98
2018-11-07T06:31:14.384Z,22.13
2018-11-07T06:33:55.861Z,19.82
2018-11-07T06:36:30.456Z,21.05
2018-11-07T06:39:10.329Z,20.70
2018-11-07T06:41:41.592Z,19.87
2018-11-07T06:44:22.150Z,19.32
2018-11-07T06:47:00.320Z,18.82
2018-11-07T06:49:37.708Z,19.67
2018-11-07T06:52:12.155Z,19.20
2018-11-07T06:54:48.396Z,18.87
2018-11-07T06:57:22.263Z,19.32
2018-11-07T06:59:55.457Z,20.52
2018-11-07T07:02:27.070Z,21.52
2018-11-07T07:04:57.593Z,21.57
2018-11-07T07:07:28.085Z,21.23
2018-11-07T07:09:58.555Z,19.60
2018-11-07T07:12:29.186Z,20.45
2018-11-07T07:14:59.670Z,21.87
2018-11-07T07:17:30.143Z,22.10
2018-11-07T07:20:00.607Z,21.15
2018-11-07T07:22:31.269Z,20.77
2018-11-07T07:25:01.712Z,20.23
2018-11-07T07:27:32.228Z,21.57
2018-11-07T07:30:02.910Z,21.73
2018-11-07T07:32:33.166Z,20.60
2018-11-07T07:35:04.003Z,20.62
2018-11-07T07:37:34.397Z,19.45
2018-11-07T07:40:05.314Z,20.10
2018-11-07T07:42:35.873Z,20.70
2018-11-07T07:45:07.754Z,19.27
2018-11-07T07:47:38.458Z,20.10
2018-11-07T07:50:10.811Z,20.02
2018-11-07T07:53:18.115Z,18.95
2018-11-07T07:55:48.541Z,20.08
2018-11-07T07:58:19.101Z,19.62
2018-11-07T08:00:49.555Z,18.57
2018-11-07T08:03:20.098Z,18.37
2018-11-07T08:05:50.528Z,19.30
2018-11-07T08:08:21.049Z,20.12
2018-11-07T08:10:51.496Z,20.10
2018-11-07T08:13:21.962Z,20.85
2018-11-07T08:15:52.511Z,20.68
2018-11-07T08:18:22.999Z,20.40
2018-11-07T08:20:53.462Z,19.37
2018-11-07T08:23:23.984Z,19.67
2018-11-07T08:25:54.439Z,19.12
2018-11-07T08:28:25.056Z,20.55
2018-11-07T08:30:55.526Z,19.80
2018-11-07T08:33:25.996Z,20.95
2018-11-07T08:35:56.522Z,19.15
2018-11-07T08:38:26.972Z,19.75
2018-11-07T08:40:57.446Z,17.82
2018-11-07T08:43:27.882Z,17.75
2018-11-07T08:45:58.386Z,17.23
2018-11-07T08:48:28.754Z,17.45
2018-11-07T08:50:59.303Z,18.15
2018-11-07T08:53:29.683Z,18.23
2018-11-07T08:56:00.150Z,17.42
2018-11-07T08:58:30.720Z,17.40
2018-11-07T09:01:01.153Z,17.75
2018-11-07T09:03:31.880Z,17.07
2018-11-07T09:06:02.356Z,17.32
2018-11-07T09:08:32.816Z,16.35
2018-11-07T09:11:03.263Z,17.00
2018-11-07T09:13:33.759Z,16.57
2018-11-07T09:16:04.188Z,17.65
2018-11-07T09:18:34.619Z,17.20
2018-11-07T09:21:05.115Z,16.82
2018-11-07T09:23:35.572Z,15.50
2018-11-07T09:26:06.440Z,16.27
2018-11-07T09:28:36.905Z,15.45
2018-11-07T09:31:07.363Z,15.85
2018-11-07T09:33:37.814Z,15.85
2018-11-07T09:36:08.287Z,15.43
2018-11-07T09:38:38.744Z,15.50
2018-11-07T09:41:09.246Z,15.58
2018-11-07T09:43:39.741Z,15.18
2018-11-07T09:46:10.238Z,15.90
2018-11-07T09:48:40.680Z,16.02
2018-11-07T09:51:11.163Z,15.98
2018-11-07T09:53:41.663Z,16.37
2018-11-07T09:56:12.081Z,16.82
2018-11-07T09:58:42.576Z,16.10
2018-11-07T10:01:13.068Z,17.00
2018-11-07T10:03:43.525Z,15.58
2018-11-07T10:06:13.970Z,16.37
2018-11-07T10:08:44.418Z,16.23
2018-11-07T10:11:14.889Z,16.10
2018-11-07T10:13:45.475Z,15.63
2018-11-07T10:16:15.942Z,15.40
2018-11-07T10:18:46.494Z,14.87
2018-11-07T10:21:16.841Z,14.53
2018-11-07T10:23:47.388Z,14.98
2018-11-07T10:26:17.764Z,15.32
2018-11-07T10:28:48.454Z,14.55
2018-11-07T10:31:18.661Z,14.98
2018-11-07T10:33:49.158Z,15.15
2018-11-07T10:36:19.691Z,14.70
2018-11-07T10:38:50.211Z,15.10
2018-11-07T10:41:20.642Z,15.15
2018-11-07T10:43:51.573Z,14.70
2018-11-07T10:46:22.853Z,14.18
2018-11-07T10:48:53.310Z,15.70
2018-11-07T10:51:25.733Z,15.43
2018-11-07T10:53:56.215Z,14.47
2018-11-07T10:56:26.685Z,14.53
2018-11-07T10:58:57.138Z,13.93
2018-11-07T11:01:45.113Z,13.98
2018-11-07T11:04:15.594Z,14.45
2018-11-07T11:06:46.211Z,13.10
2018-11-07T11:09:16.660Z,14.13
2018-11-07T11:11:47.083Z,13.65
2018-11-07T11:14:17.528Z,13.75
2018-11-07T11:16:48.013Z,13.85
2018-11-07T11:19:18.421Z,14.00
2018-11-07T11:21:48.969Z,14.68
2018-11-07T11:24:19.278Z,14.33
2018-11-07T11:26:49.697Z,13.88
2018-11-07T11:29:20.223Z,14.25
2018-11-07T11:31:53.593Z,13.65
2018-11-07T11:34:24.261Z,13.88
2018-11-07T11:36:54.569Z,13.68
2018-11-07T11:39:25.023Z,14.85
2018-11-07T11:41:55.532Z,14.55
2018-11-07T11:44:25.998Z,14.58
2018-11-07T11:46:56.478Z,13.83
2018-11-07T11:49:26.944Z,15.13
2018-11-07T11:51:57.426Z,14.87
2018-11-07T11:54:27.943Z,15.30
2018-11-07T11:56:58.383Z,14.55
2018-11-07T11:59:29.018Z,15.35
2018-11-07T12:01:59.267Z,14.60
2018-11-07T12:04:29.754Z,15.35
2018-11-07T12:07:00.212Z,15.13
2018-11-07T12:09:30.651Z,15.20
2018-11-07T12:12:01.138Z,15.38
2018-11-07T12:14:31.596Z,15.78
2018-11-07T12:17:02.032Z,15.10
2018-11-07T12:19:32.547Z,15.48
2018-11-07T12:22:02.989Z,15.85
2018-11-07T12:24:33.471Z,16.12
2018-11-07T12:27:03.928Z,15.23
2018-11-07T12:29:34.417Z,16.42
2018-11-07T12:32:04.889Z,15.53
2018-11-07T12:34:35.380Z,15.88
2018-11-07T12:37:05.972Z,15.83
2018-11-07T12:39:36.446Z,16.48
2018-11-07T12:42:07.144Z,15.93
2018-11-07T12:44:37.596Z,16.20
2018-11-07T12:47:08.116Z,16.12
2018-11-07T12:49:38.565Z,16.48
2018-11-07T12:52:08.931Z,16.45
2018-11-07T12:54:39.478Z,16.12
2018-11-07T12:57:09.898Z,15.70
2018-11-07T12:59:40.381Z,15.83
2018-11-07T13:02:10.837Z,16.05
2018-11-07T13:04:41.379Z,16.37
2018-11-07T13:07:11.757Z,17.10
2018-11-07T13:09:42.238Z,16.75
2018-11-07T13:12:12.731Z,16.37
2018-11-07T13:14:43.176Z,16.70
2018-11-07T13:17:13.643Z,16.65
2018-11-07T13:19:44.243Z,15.53
2018-11-07T13:22:14.915Z,15.93
2018-11-07T13:24:45.396Z,16.65
2018-11-07T13:27:15.917Z,16.40
2018-11-07T13:29:46.402Z,15.93
2018-11-07T13:32:16.867Z,16.40
2018-11-07T13:34:47.392Z,16.48
2018-11-07T13:37:18.194Z,16.45
2018-11-07T13:39:48.838Z,16.42
2018-11-07T13:42:19.369Z,16.07
2018-11-07T13:44:50.680Z,16.05
2018-11-07T13:47:21.570Z,16.32
2018-11-07T13:49:52.103Z,16.65
2018-11-07T13:52:22.781Z,16.73
2018-11-07T13:54:53.280Z,16.70
2018-11-07T13:57:23.857Z,17.35
2018-11-07T13:59:54.416Z,16.65
2018-11-07T14:02:25.119Z,17.50
2018-11-07T14:04:55.752Z,18.50
2018-11-07T14:07:26.347Z,17.27
2018-11-07T14:09:59.539Z,17.57
2018-11-07T14:12:30.129Z,20.00
2018-11-07T14:15:01.481Z,24.87
2018-11-07T14:17:32.420Z,24.77
2018-11-07T14:20:03.252Z,26.02
2018-11-07T14:22:33.788Z,24.60
2018-11-07T14:25:04.551Z,25.60
2018-11-07T14:27:35.145Z,23.60
2018-11-07T14:30:07.324Z,22.87
2018-11-07T14:32:38.031Z,23.12
2018-11-07T14:35:08.644Z,22.98
2018-11-07T14:37:39.112Z,27.75
2018-11-07T14:40:09.678Z,28.67
2018-11-07T14:42:40.253Z,27.75
2018-11-07T14:45:11.932Z,35.52
2018-11-07T14:47:43.142Z,28.30
2018-11-07T14:50:13.813Z,22.50
2018-11-07T14:52:44.345Z,27.17
2018-11-07T14:55:14.896Z,24.57
2018-11-07T14:57:45.440Z,27.13
2018-11-07T15:00:16.944Z,33.10
2018-11-07T15:02:47.732Z,37.55
2018-11-07T15:05:18.802Z,65.22
2018-11-07T15:07:49.285Z,96.92
2018-11-07T15:10:19.742Z,85.32
2018-11-07T15:12:50.304Z,81.25
2018-11-07T15:15:20.780Z,72.15
2018-11-07T15:17:51.460Z,71.87
2018-11-07T15:20:21.991Z,82.53
2018-11-07T15:22:52.967Z,86.08
2018-11-07T15:25:23.746Z,103.65
2018-11-07T15:27:54.416Z,98.45
2018-11-07T15:30:25.166Z,98.25
2018-11-07T15:32:55.791Z,97.80
2018-11-07T15:35:27.369Z,103.50
2018-11-07T15:37:57.988Z,108.27
2018-11-07T15:40:29.326Z,110.42
2018-11-07T15:43:01.111Z,113.25
2018-11-07T15:45:32.307Z,129.65
2018-11-07T15:48:03.583Z,125.33
2018-11-07T15:50:53.280Z,122.82
2018-11-07T15:53:23.832Z,146.75
2018-11-07T15:55:54.412Z,195.87
2018-11-07T15:58:25.090Z,176.35
2018-11-07T16:00:55.569Z,179.45
2018-11-07T16:03:51.356Z,176.25
2018-11-07T16:06:21.952Z,213.43
2018-11-07T16:08:55.909Z,245.57
2018-11-07T16:11:27.341Z,270.00
2018-11-07T16:13:57.919Z,311.65
2018-11-07T16:16:28.799Z,293.67
2018-11-07T16:18:59.262Z,280.48
2018-11-07T16:21:29.769Z,250.45
2018-11-07T16:24:00.556Z,281.52
2018-11-07T16:26:31.058Z,272.82
2018-11-07T16:29:01.582Z,286.80
2018-11-07T16:31:32.090Z,319.32
2018-11-07T16:34:02.674Z,314.75
2018-11-07T16:36:33.072Z,329.87
2018-11-07T16:39:03.718Z,363.32
2018-11-07T16:41:34.338Z,342.82
2018-11-07T16:44:04.659Z,342.18
2018-11-07T16:46:35.242Z,287.27
2018-11-07T16:49:08.110Z,288.82
2018-11-07T16:51:39.256Z,285.90
2018-11-07T16:54:11.894Z,247.80
2018-11-07T16:56:42.714Z,302.18
2018-11-07T16:59:15.217Z,320.75
2018-11-07T17:01:48.356Z,301.73
2018-11-07T17:04:20.891Z,309.73
2018-11-07T17:06:53.595Z,313.80
2018-11-07T17:09:29.783Z,321.87
2018-11-07T17:12:01.564Z,330.95
2018-11-07T17:14:34.686Z,367.68
2018-11-07T17:17:14.474Z,374.67
2018-11-07T17:19:46.468Z,362.45
2018-11-07T17:22:17.100Z,351.10
2018-11-07T17:24:48.144Z,328.77
2018-11-07T17:27:19.043Z,316.65
2018-11-07T17:29:49.471Z,307.40
2018-11-07T17:32:21.101Z,314.45
2018-11-07T17:34:51.699Z,285.48
2018-11-07T17:37:22.196Z,277.20
2018-11-07T17:39:52.720Z,251.40
2018-11-07T17:42:23.393Z,237.38
2018-11-07T17:44:53.929Z,252.05
2018-11-07T17:47:24.506Z,234.12
2018-11-07T17:49:55.081Z,224.25
2018-11-07T17:52:25.799Z,210.55
2018-11-07T17:54:56.359Z,206.97
2018-11-07T17:57:27.453Z,198.90
2018-11-07T17:59:58.055Z,201.70
2018-11-07T18:02:28.802Z,207.55
2018-11-07T18:04:59.379Z,210.28
2018-11-07T18:07:29.893Z,231.15
2018-11-07T18:10:00.463Z,235.25
2018-11-07T18:12:31.076Z,248.82
2018-11-07T18:15:01.635Z,258.30
2018-11-07T18:17:32.271Z,262.25
2018-11-07T18:20:03.685Z,265.10
2018-11-07T18:22:34.282Z,274.07
2018-11-07T18:25:04.961Z,288.60
2018-11-07T18:27:36.410Z,274.18
2018-11-07T18:30:08.414Z,267.05
2018-11-07T18:32:39.254Z,270.50
2018-11-07T18:35:11.471Z,278.30
2018-11-07T18:37:44.338Z,279.48
2018-11-07T18:40:16.336Z,301.95
2018-11-07T18:42:46.980Z,316.40
2018-11-07T18:45:18.088Z,305.18
2018-11-07T18:47:48.802Z,311.77
2018-11-07T18:50:20.589Z,297.07
2018-11-07T18:52:51.981Z,291.98
2018-11-07T18:55:28.780Z,279.65
2018-11-07T18:58:18.813Z,269.98
2018-11-07T19:01:40.673Z,259.23
2018-11-07T19:04:11.881Z,270.27
2018-11-07T19:06:43.214Z,266.65
2018-11-07T19:09:15.264Z,231.87
2018-11-07T19:11:47.073Z,207.03
2018-11-07T19:14:24.398Z,206.40
2018-11-07T19:16:55.551Z,186.60
2018-11-07T19:19:27.563Z,132.50
2018-11-07T19:21:59.531Z,177.27
2018-11-07T19:24:31.573Z,174.00
2018-11-07T19:27:04.020Z,172.93
2018-11-07T19:29:35.913Z,202.35
2018-11-07T19:32:06.390Z,169.62
2018-11-07T19:34:36.909Z,171.43
2018-11-07T19:37:07.712Z,177.78
2018-11-07T19:39:38.358Z,167.18
2018-11-07T19:42:08.760Z,168.82
2018-11-07T19:44:39.601Z,195.95
2018-11-07T19:47:09.999Z,196.90
2018-11-07T19:49:40.600Z,209.47
2018-11-07T19:52:11.103Z,192.85
2018-11-07T19:54:41.592Z,174.07
2018-11-07T19:57:12.098Z,203.32
2018-11-07T19:59:42.676Z,245.60
2018-11-07T20:02:13.214Z,239.70
2018-11-07T20:04:43.738Z,224.27
2018-11-07T20:07:15.401Z,181.93
2018-11-07T20:09:46.991Z,165.12
2018-11-07T20:12:19.088Z,146.02
2018-11-07T20:14:53.856Z,136.30
2018-11-07T20:17:25.013Z,131.22
2018-11-07T20:20:02.783Z,125.60
2018-11-07T20:22:35.732Z,120.35
2018-11-07T20:25:09.580Z,120.57
2018-11-07T20:27:43.203Z,127.25
2018-11-07T20:30:15.826Z,156.18
2018-11-07T20:32:47.287Z,133.63
2018-11-07T20:35:20.417Z,137.32
2018-11-07T20:37:55.889Z,148.07
2018-11-07T20:40:29.925Z,145.32
2018-11-07T20:43:00.799Z,133.57
2018-11-07T20:45:31.592Z,128.85
2018-11-07T20:48:02.336Z,128.20
2018-11-07T20:50:35.213Z,118.17
2018-11-07T20:53:06.579Z,125.25
2018-11-07T20:55:44.188Z,110.32
2018-11-07T20:58:15.512Z,105.30
2018-11-07T21:00:46.638Z,129.30
2018-11-07T21:03:18.955Z,129.03
2018-11-07T21:05:54.072Z,121.75
2018-11-07T21:08:26.132Z,134.63
2018-11-07T21:10:59.912Z,140.10
2018-11-07T21:13:31.962Z,138.40
2018-11-07T21:16:07.693Z,136.03
2018-11-07T21:18:44.931Z,130.10
2018-11-07T21:21:20.690Z,112.57
2018-11-07T21:24:05.695Z,101.18
2018-11-07T21:26:41.813Z,96.63
2018-11-07T21:29:18.896Z,99.52
2018-11-07T21:31:50.871Z,114.60
2018-11-07T21:34:30.457Z,120.57
2018-11-07T21:37:01.886Z,125.22
2018-11-07T21:40:19.189Z,144.85
2018-11-07T21:43:01.433Z,165.10
2018-11-07T21:49:33.671Z,133.03
2018-11-07T21:52:21.742Z,133.55
2018-11-07T21:55:04.927Z,134.52
2018-11-07T21:57:37.863Z,130.50
2018-11-07T22:00:53.604Z,133.63
2018-11-07T22:03:25.976Z,127.75
2018-11-07T22:05:58.038Z,133.30
2018-11-07T22:08:33.580Z,133.90
2018-11-07T22:11:04.084Z,129.72
2018-11-07T22:13:34.564Z,126.10
2018-11-07T22:16:05.045Z,122.67
2018-11-07T22:18:35.528Z,115.40
2018-11-07T22:21:06.166Z,112.20
2018-11-07T22:23:36.697Z,107.45
2018-11-07T22:26:07.521Z,104.83
2018-11-07T22:28:40.635Z,102.72
2018-11-07T22:31:12.731Z,102.75
2018-11-07T22:33:44.393Z,99.20
2018-11-07T22:36:16.363Z,100.10
2018-11-07T22:38:48.171Z,107.90
2018-11-07T22:41:19.936Z,105.12
2018-11-07T22:43:52.005Z,104.67
2018-11-07T22:46:23.902Z,104.60
2018-11-07T22:48:56.100Z,107.10
2018-11-07T22:51:28.324Z,109.85
2018-11-07T22:53:59.623Z,105.83
2018-11-07T22:56:31.383Z,98.55
2018-11-07T22:59:01.898Z,93.15
2018-11-07T23:01:42.336Z,92.92
2018-11-07T23:04:12.822Z,96.00
2018-11-07T23:06:43.326Z,89.50
2018-11-07T23:09:14.992Z,81.78
2018-11-07T23:11:45.750Z,78.87
2018-11-07T23:14:16.509Z,79.92
2018-11-07T23:16:46.983Z,82.78
2018-11-07T23:19:17.449Z,87.10
2018-11-07T23:21:47.902Z,88.47
2018-11-07T23:24:18.335Z,83.92
2018-11-07T23:26:48.768Z,78.15
2018-11-07T23:29:19.184Z,78.07
2018-11-07T23:31:49.684Z,81.72
2018-11-07T23:34:20.186Z,80.85
2018-11-07T23:39:21.115Z,76.97
2018-11-07T23:41:51.582Z,75.22
2018-11-07T23:44:22.053Z,72.40
2018-11-07T23:46:52.526Z,72.03
2018-11-07T23:49:23.017Z,71.22
2018-11-07T23:51:53.487Z,77.20
2018-11-07T23:54:23.955Z,87.88
2018-11-07T23:56:54.427Z,91.78
2018-11-07T23:59:24.865Z,94.58
